createdAt,value
2019-04-23T00:02:44.425Z,7.75
2019-04-23T00:05:02.810Z,8.23
2019-04-23T00:07:43.132Z,8.05
2019-04-23T00:10:12.456Z,7.03
2019-04-23T00:15:10.534Z,9.38
2019-04-23T00:20:14.292Z,8.55
2019-04-23T00:22:51.669Z,8.43
2019-04-23T00:25:43.654Z,7.95
2019-04-23T00:28:01.723Z,9.73
2019-04-23T00:30:36.551Z,8.70
2019-04-23T00:33:05.864Z,7.80
2019-04-23T00:35:32.624Z,8.68
2019-04-23T00:38:10.473Z,7.90
2019-04-23T00:43:17.339Z,8.85
2019-04-23T00:45:48.495Z,9.75
2019-04-23T00:48:28.926Z,8.48
2019-04-23T00:50:58.602Z,7.28
2019-04-23T00:53:24.898Z,8.40
2019-04-23T00:56:09.728Z,9.78
2019-04-23T00:58:41.615Z,8.83
2019-04-23T01:00:59.891Z,8.13
2019-04-23T01:03:25.610Z,7.47
2019-04-23T01:06:21.167Z,6.20
2019-04-23T01:08:35.624Z,9.05
2019-04-23T01:11:13.385Z,8.95
2019-04-23T01:13:49.580Z,9.38
2019-04-23T01:16:28.331Z,8.53
2019-04-23T01:18:51.376Z,8.58
2019-04-23T01:21:07.590Z,7.90
2019-04-23T01:23:53.975Z,7.70
2019-04-23T01:26:40.645Z,8.70
2019-04-23T01:29:21.260Z,8.80
2019-04-23T01:31:57.451Z,8.53
2019-04-23T01:34:28.033Z,9.48
2019-04-23T01:36:54.169Z,8.73
2019-04-23T01:39:23.283Z,8.85
2019-04-23T01:42:03.678Z,9.15
2019-04-23T01:44:38.750Z,7.87
2019-04-23T01:47:00.881Z,9.20
2019-04-23T01:49:36.000Z,5.72
2019-04-23T01:52:08.449Z,9.38
2019-04-23T01:54:38.650Z,9.68
2019-04-23T01:57:09.195Z,10.08
2019-04-23T01:59:46.188Z,7.28
2019-04-23T02:02:19.329Z,9.13
2019-04-23T02:04:52.642Z,7.85
2019-04-23T02:07:34.185Z,9.33
2019-04-23T02:10:16.685Z,8.10
2019-04-23T02:12:25.682Z,8.65
2019-04-23T02:15:03.618Z,8.33
2019-04-23T02:17:34.071Z,8.98
2019-04-23T02:22:52.112Z,8.08
2019-04-23T02:25:24.839Z,8.70
2019-04-23T02:27:53.745Z,9.83
2019-04-23T02:30:40.957Z,6.35
2019-04-23T02:35:42.663Z,7.08
2019-04-23T02:40:49.538Z,9.80
2019-04-23T02:43:13.059Z,9.25
2019-04-23T02:45:48.521Z,9.90
2019-04-23T02:53:26.330Z,6.25
2019-04-23T02:55:52.294Z,8.55
2019-04-23T02:58:28.298Z,10.13
2019-04-23T03:01:14.994Z,10.60
2019-04-23T03:06:00.977Z,5.65
2019-04-23T03:08:36.422Z,10.75
2019-04-23T03:11:09.859Z,8.68
2019-04-23T03:18:56.637Z,6.15
2019-04-23T03:21:25.471Z,11.65
2019-04-23T03:26:47.367Z,9.78
2019-04-23T03:29:16.687Z,6.90
2019-04-23T03:34:52.127Z,10.80
2019-04-23T03:39:13.940Z,11.25
2019-04-23T03:41:48.483Z,11.30
2019-04-23T03:44:20.581Z,10.98
2019-04-23T03:46:51.449Z,8.90
2019-04-23T03:49:32.897Z,10.90
2019-04-23T03:52:07.429Z,10.08
2019-04-23T03:57:21.903Z,11.30
2019-04-23T04:02:19.789Z,10.90
2019-04-23T04:04:39.534Z,9.63
2019-04-23T04:17:23.706Z,8.48
2019-04-23T04:25:05.183Z,10.40
2019-04-23T04:27:43.400Z,11.03
2019-04-23T04:30:07.811Z,8.63
2019-04-23T04:32:31.612Z,8.18
2019-04-23T04:42:41.852Z,10.63
2019-04-23T04:45:20.329Z,10.93
2019-04-23T04:50:15.413Z,10.53
2019-04-23T04:55:26.332Z,9.85
2019-04-23T04:57:52.934Z,10.18
2019-04-23T05:00:34.715Z,9.88
2019-04-23T05:03:12.592Z,10.50
2019-04-23T05:06:01.452Z,7.05
2019-04-23T05:13:24.740Z,10.35
2019-04-23T05:15:39.016Z,10.55
2019-04-23T05:20:52.954Z,9.73
2019-04-23T05:23:25.651Z,11.05
2019-04-23T05:25:49.991Z,8.98
2019-04-23T05:28:54.442Z,10.38
2019-04-23T05:31:01.587Z,9.43
2019-04-23T05:33:28.894Z,6.42
2019-04-23T05:38:43.208Z,10.15
2019-04-23T05:41:10.047Z,7.67
2019-04-23T05:43:40.811Z,10.05
2019-04-23T05:46:16.109Z,9.55
2019-04-23T05:48:42.947Z,10.93
2019-04-23T05:51:24.294Z,7.28
2019-04-23T05:53:56.277Z,10.35
2019-04-23T05:56:20.564Z,10.98
2019-04-23T05:58:55.817Z,8.53
2019-04-23T06:11:58.611Z,10.13
2019-04-23T06:14:19.131Z,11.50
2019-04-23T06:22:00.450Z,11.53
2019-04-23T06:26:57.521Z,11.68
2019-04-23T06:29:25.927Z,11.70
2019-04-23T06:31:53.985Z,13.15
2019-04-23T06:34:29.686Z,11.10
2019-04-23T06:36:57.079Z,10.90
2019-04-23T06:39:39.607Z,10.08
2019-04-23T06:42:09.137Z,8.88
2019-04-23T06:44:37.345Z,9.18
2019-04-23T06:49:44.142Z,8.63
2019-04-23T06:52:18.707Z,12.40
2019-04-23T06:54:56.186Z,9.38
2019-04-23T06:59:48.471Z,10.53
2019-04-23T07:02:30.886Z,12.65
2019-04-23T07:05:06.503Z,10.03
2019-04-23T07:09:57.907Z,10.35
2019-04-23T07:12:38.965Z,13.25
2019-04-23T07:17:34.533Z,13.15
2019-04-23T07:20:08.294Z,9.93
2019-04-23T07:22:34.541Z,12.63
2019-04-23T07:25:14.121Z,8.68
2019-04-23T07:27:41.082Z,9.23
2019-04-23T07:35:25.015Z,8.05
2019-04-23T07:38:01.830Z,8.08
2019-04-23T07:40:44.762Z,10.10
2019-04-23T07:43:39.704Z,7.42
2019-04-23T07:46:34.538Z,10.35
2019-04-23T07:48:58.993Z,9.08
2019-04-23T07:51:35.658Z,12.33
2019-04-23T07:54:09.547Z,11.68
2019-04-23T07:56:37.288Z,10.00
2019-04-23T07:59:16.098Z,7.08
2019-04-23T08:01:47.762Z,9.70
2019-04-23T08:04:10.143Z,7.62
2019-04-23T08:06:50.618Z,7.92
2019-04-23T08:09:17.351Z,8.98
2019-04-23T08:14:15.085Z,7.17
2019-04-23T08:16:49.918Z,7.58
2019-04-23T08:19:32.309Z,10.15
2019-04-23T08:22:10.818Z,11.12
2019-04-23T08:24:45.398Z,11.57
2019-04-23T08:29:36.366Z,7.90
2019-04-23T08:32:29.533Z,7.85
2019-04-23T08:40:08.254Z,11.03
2019-04-23T08:42:38.498Z,11.10
2019-04-23T08:47:50.708Z,10.48
2019-04-23T08:50:27.615Z,8.10
2019-04-23T08:53:14.867Z,8.13
2019-04-23T08:55:32.235Z,9.85
2019-04-23T08:57:59.215Z,11.08
2019-04-23T09:00:40.430Z,9.68
2019-04-23T09:03:13.127Z,7.90
2019-04-23T09:05:45.222Z,7.15
2019-04-23T09:08:17.123Z,10.28
2019-04-23T09:13:40.184Z,5.55
2019-04-23T09:15:51.077Z,8.68
2019-04-23T09:18:21.225Z,11.95
2019-04-23T09:20:52.996Z,10.88
2019-04-23T09:23:34.903Z,7.50
2019-04-23T09:31:11.655Z,8.90
2019-04-23T09:33:46.781Z,7.80
2019-04-23T09:36:37.959Z,9.23
2019-04-23T09:39:08.380Z,10.35
2019-04-23T09:41:39.838Z,7.87
2019-04-23T09:44:48.479Z,5.97
2019-04-23T09:47:17.486Z,13.13
2019-04-23T09:49:40.439Z,8.50
2019-04-23T09:52:13.325Z,9.23
2019-04-23T09:55:11.430Z,12.30
2019-04-23T09:57:15.979Z,7.12
2019-04-23T09:59:49.807Z,11.88
2019-04-23T10:02:19.509Z,10.08
2019-04-23T10:04:44.904Z,11.60
2019-04-23T10:07:12.621Z,10.80
2019-04-23T10:09:34.223Z,10.20
2019-04-23T10:12:07.326Z,10.95
2019-04-23T10:14:38.659Z,7.12
2019-04-23T10:17:10.379Z,9.10
2019-04-23T10:19:42.604Z,9.73
2019-04-23T10:22:13.360Z,7.58
2019-04-23T10:24:45.607Z,7.05
2019-04-23T10:27:17.027Z,6.85
2019-04-23T10:29:47.943Z,9.10
2019-04-23T10:32:19.764Z,9.30
2019-04-23T10:35:03.508Z,7.20
2019-04-23T10:37:34.330Z,7.60
2019-04-23T10:40:00.378Z,10.00
2019-04-23T10:42:30.707Z,8.50
2019-04-23T10:45:16.605Z,7.95
2019-04-23T10:48:31.756Z,8.88
2019-04-23T10:50:55.399Z,10.85
2019-04-23T10:56:00.688Z,7.00
2019-04-23T11:01:04.593Z,7.67
2019-04-23T11:06:17.631Z,8.10
2019-04-23T11:08:50.491Z,8.43
2019-04-23T11:11:16.563Z,10.38
2019-04-23T11:18:59.881Z,14.10
2019-04-23T11:21:31.344Z,15.08
2019-04-23T11:24:01.739Z,14.10
2019-04-23T11:29:12.745Z,13.93
2019-04-23T11:31:58.469Z,14.38
2019-04-23T11:34:19.971Z,6.85
2019-04-23T11:39:16.543Z,6.22
2019-04-23T11:41:51.393Z,15.72
2019-04-23T11:44:30.617Z,10.88
2019-04-23T11:54:30.907Z,14.58
2019-04-23T11:57:22.281Z,9.63
2019-04-23T11:59:40.785Z,16.12
2019-04-23T12:02:07.500Z,10.38
2019-04-23T12:04:57.588Z,15.05
2019-04-23T12:07:34.382Z,16.25
2019-04-23T12:10:20.020Z,14.28
2019-04-23T12:12:55.606Z,9.85
2019-04-23T12:15:18.097Z,15.80
2019-04-23T12:17:50.761Z,17.02
2019-04-23T12:20:28.568Z,15.43
2019-04-23T12:23:06.145Z,11.20
2019-04-23T12:25:34.112Z,17.87
2019-04-23T12:28:01.411Z,20.15
2019-04-23T12:30:39.451Z,20.10
2019-04-23T12:33:13.013Z,20.37
2019-04-23T12:35:40.763Z,15.60
2019-04-23T12:38:23.832Z,14.75
2019-04-23T12:40:45.913Z,21.62
2019-04-23T12:45:47.350Z,18.87
2019-04-23T12:48:33.724Z,18.05
2019-04-23T12:53:30.589Z,24.30
2019-04-23T12:56:05.007Z,20.77
2019-04-23T12:58:38.276Z,20.40
2019-04-23T13:00:58.425Z,13.05
2019-04-23T13:03:37.245Z,14.70
2019-04-23T13:05:59.330Z,13.58
2019-04-23T13:08:46.735Z,8.00
2019-04-23T13:11:14.047Z,14.03
2019-04-23T13:13:53.303Z,7.80
2019-04-23T13:16:25.472Z,13.18
2019-04-23T13:18:49.777Z,6.95
2019-04-23T13:21:45.314Z,17.73
2019-04-23T13:24:04.937Z,18.73
2019-04-23T13:26:35.621Z,16.00
2019-04-23T13:29:32.920Z,10.75
2019-04-23T13:31:34.363Z,17.02
2019-04-23T13:34:16.325Z,15.88
2019-04-23T13:36:46.768Z,14.55
2019-04-23T13:39:18.044Z,13.28
2019-04-23T13:41:48.243Z,16.05
2019-04-23T13:44:25.586Z,16.62
2019-04-23T13:47:00.002Z,15.80
2019-04-23T13:49:37.565Z,17.25
2019-04-23T13:52:05.913Z,17.35
2019-04-23T13:54:58.064Z,17.42
2019-04-23T13:57:34.745Z,11.80
2019-04-23T14:02:19.626Z,16.77
2019-04-23T14:05:06.280Z,18.12
2019-04-23T14:07:38.797Z,13.65
2019-04-23T14:10:14.867Z,17.25
2019-04-23T14:12:52.118Z,10.65
2019-04-23T14:15:10.728Z,17.67
2019-04-23T14:17:51.564Z,16.50
2019-04-23T14:20:18.904Z,8.73
2019-04-23T14:23:00.313Z,13.28
2019-04-23T14:25:16.678Z,14.53
2019-04-23T14:28:00.205Z,14.18
2019-04-23T14:30:29.879Z,18.52
2019-04-23T14:33:00.945Z,11.70
2019-04-23T14:38:15.897Z,15.43
2019-04-23T14:48:17.659Z,23.57
2019-04-23T14:50:54.669Z,22.25
2019-04-23T14:56:07.610Z,20.88
2019-04-23T15:01:15.996Z,20.40
2019-04-23T15:03:39.889Z,17.62
2019-04-23T15:08:57.413Z,16.60
2019-04-23T15:11:20.906Z,20.17
2019-04-23T15:13:47.364Z,20.80
2019-04-23T15:16:20.508Z,18.37
2019-04-23T15:24:00.838Z,23.83
2019-04-23T15:28:39.433Z,14.33
2019-04-23T15:31:35.061Z,19.62
2019-04-23T15:34:09.176Z,13.10
2019-04-23T15:36:58.149Z,21.60
2019-04-23T15:41:53.020Z,20.02
2019-04-23T15:46:56.636Z,17.98
2019-04-23T15:49:22.990Z,19.00
2019-04-23T15:52:00.751Z,20.90
2019-04-23T15:54:28.115Z,21.68
2019-04-23T15:56:55.054Z,14.47
2019-04-23T16:01:41.264Z,17.57
2019-04-23T16:04:06.108Z,14.03
2019-04-23T16:06:38.569Z,18.67
2019-04-23T16:09:36.219Z,10.13
2019-04-23T16:12:03.458Z,17.98
2019-04-23T16:14:56.783Z,14.85
2019-04-23T16:20:12.639Z,15.98
2019-04-23T16:22:30.438Z,8.53
2019-04-23T16:25:09.870Z,8.30
2019-04-23T16:27:29.313Z,13.95
2019-04-23T16:30:14.225Z,14.65
2019-04-23T16:32:56.089Z,17.05
2019-04-23T16:35:28.371Z,13.10
2019-04-23T16:38:01.448Z,16.02
2019-04-23T16:40:28.338Z,13.83
2019-04-23T16:43:00.841Z,14.50
2019-04-23T16:48:07.368Z,15.70
2019-04-23T16:50:41.340Z,9.30
2019-04-23T16:58:23.215Z,13.43
2019-04-23T17:01:00.481Z,15.63
2019-04-23T17:03:28.191Z,14.50
2019-04-23T17:05:57.859Z,13.90
2019-04-23T17:16:06.751Z,14.58
2019-04-23T17:18:31.189Z,13.65
2019-04-23T17:21:10.237Z,13.40
2019-04-23T17:26:10.679Z,15.40
2019-04-23T17:28:39.470Z,16.82
2019-04-23T17:31:34.525Z,15.45
2019-04-23T17:33:52.037Z,15.10
2019-04-23T17:36:33.505Z,17.60
2019-04-23T17:39:08.232Z,17.85
2019-04-23T17:41:38.873Z,17.75
2019-04-23T17:46:56.277Z,14.45
2019-04-23T17:49:23.375Z,16.15
2019-04-23T17:51:59.269Z,16.62
2019-04-23T17:54:43.276Z,17.40
2019-04-23T17:57:07.566Z,20.92
2019-04-23T18:05:02.632Z,19.87
2019-04-23T18:10:24.943Z,16.95
2019-04-23T18:15:04.957Z,19.07
2019-04-23T18:20:13.481Z,21.95
2019-04-23T18:22:49.155Z,24.05
2019-04-23T18:27:54.193Z,23.55
2019-04-23T18:30:26.367Z,22.67
2019-04-23T18:33:43.393Z,25.40
2019-04-23T18:38:22.872Z,24.67
2019-04-23T18:41:00.793Z,27.05
2019-04-23T18:43:23.976Z,26.07
2019-04-23T18:45:54.080Z,22.95
2019-04-23T18:48:40.447Z,26.52
2019-04-23T18:51:03.820Z,23.80
2019-04-23T18:56:20.785Z,22.15
2019-04-23T19:01:27.917Z,20.90
2019-04-23T19:04:06.511Z,23.32
2019-04-23T19:06:34.483Z,21.75
2019-04-23T19:09:39.131Z,22.65
2019-04-23T19:12:14.346Z,20.48
2019-04-23T19:14:53.577Z,24.90
2019-04-23T19:17:44.121Z,24.05
2019-04-23T19:19:49.934Z,20.68
2019-04-23T19:25:09.354Z,20.77
2019-04-23T19:27:29.454Z,19.07
2019-04-23T19:30:07.063Z,18.05
2019-04-23T19:32:43.511Z,22.65
2019-04-23T19:35:23.752Z,20.72
2019-04-23T19:40:20.162Z,22.32
2019-04-23T19:42:52.358Z,14.53
2019-04-23T19:45:30.542Z,22.93
2019-04-23T19:47:58.662Z,23.50
2019-04-23T19:50:32.951Z,19.30
2019-04-23T19:53:14.228Z,22.85
2019-04-23T19:55:29.915Z,21.12
2019-04-23T19:58:15.023Z,20.30
2019-04-23T20:00:58.245Z,20.25
2019-04-23T20:03:25.976Z,21.55
2019-04-23T20:05:47.078Z,22.42
2019-04-23T20:08:31.395Z,18.73
2019-04-23T20:11:01.283Z,21.65
2019-04-23T20:13:21.733Z,21.65
2019-04-23T20:16:05.409Z,18.35
2019-04-23T20:18:37.894Z,22.00
2019-04-23T20:20:54.229Z,20.15
2019-04-23T20:23:45.473Z,19.80
2019-04-23T20:26:16.100Z,22.52
2019-04-23T20:32:53.964Z,18.15
2019-04-23T20:36:45.919Z,21.17
2019-04-23T20:39:16.380Z,20.40
2019-04-23T20:47:05.758Z,21.25
2019-04-23T20:49:38.781Z,22.48
2019-04-23T20:52:04.652Z,22.00
2019-04-23T20:54:50.911Z,18.30
2019-04-23T21:05:17.158Z,21.00
2019-04-23T21:10:27.665Z,20.85
2019-04-23T21:25:39.136Z,20.35
2019-04-23T21:28:31.440Z,19.48
2019-04-23T21:36:10.728Z,18.77
2019-04-23T21:38:39.832Z,20.17
2019-04-23T21:43:47.331Z,18.20
2019-04-23T21:46:14.569Z,20.97
2019-04-23T21:48:53.075Z,18.50
2019-04-23T21:51:22.964Z,17.70
2019-04-23T21:53:50.673Z,19.85
2019-04-23T21:56:15.544Z,18.07
2019-04-23T21:58:57.935Z,18.77
2019-04-23T22:01:32.111Z,17.77
2019-04-23T22:04:12.773Z,18.12
2019-04-23T22:06:35.804Z,16.48
2019-04-23T22:19:26.789Z,13.43
2019-04-23T22:21:45.341Z,12.88
2019-04-23T22:26:45.289Z,13.98
2019-04-23T22:34:36.793Z,10.23
2019-04-23T22:37:09.838Z,10.50
2019-04-23T22:39:34.560Z,11.78
2019-04-23T22:42:08.880Z,9.70
2019-04-23T22:44:51.605Z,10.58
2019-04-23T22:47:05.966Z,11.03
2019-04-23T22:49:47.948Z,10.55
2019-04-23T22:52:16.423Z,9.03
2019-04-23T22:54:57.584Z,5.85
2019-04-23T22:57:09.015Z,10.72
2019-04-23T23:00:04.549Z,10.65
2019-04-23T23:07:47.701Z,11.15
2019-04-23T23:12:51.350Z,12.00
2019-04-23T23:18:07.487Z,11.43
2019-04-23T23:20:20.847Z,12.55
2019-04-23T23:23:05.603Z,8.75
2019-04-23T23:28:00.617Z,11.70
2019-04-23T23:30:26.568Z,10.80
2019-04-23T23:33:02.564Z,11.85
2019-04-23T23:35:31.228Z,8.53
2019-04-23T23:38:09.773Z,11.60
2019-04-23T23:40:40.277Z,11.83
2019-04-23T23:45:53.169Z,12.05
2019-04-23T23:48:13.081Z,12.03
2019-04-23T23:50:55.092Z,11.78
2019-04-23T23:53:32.888Z,12.70
2019-04-23T23:55:58.685Z,12.98
2019-04-23T23:58:36.580Z,7.05
